sensor_id;sensor_type;location;lat;lon;timestamp;P1;durP1;ratioP1;P2;durP2;ratioP2
26020;SDS011;13798;48.858;9.092;2022-07-23T08:02:07;9.73;;;8.60;;
26020;SDS011;13798;48.858;9.092;2022-07-23T08:04:33;9.18;;;8.27;;
26020;SDS011;13798;48.858;9.092;2022-07-23T08:06:58;8.93;;;8.03;;
26020;SDS011;13798;48.858;9.092;2022-07-23T08:09:23;9.10;;;8.20;;
26020;SDS011;13798;48.858;9.092;2022-07-23T08:11:49;9.02;;;8.23;;
26020;SDS011;13798;48.858;9.092;2022-07-23T08:14:16;10.20;;;8.48;;
26020;SDS011;13798;48.858;9.092;2022-07-23T08:16:42;9.73;;;7.73;;
26020;SDS011;13798;48.858;9.092;2022-07-23T08:19:08;8.85;;;7.75;;
26020;SDS011;13798;48.858;9.092;2022-07-23T08:21:33;8.97;;;8.10;;
26020;SDS011;13798;48.858;9.092;2022-07-23T08:23:59;8.53;;;7.53;;
26020;SDS011;13798;48.858;9.092;2022-07-23T08:26:24;8.23;;;7.43;;
26020;SDS011;13798;48.858;9.092;2022-07-23T08:28:50;8.20;;;7.40;;
26020;SDS011;13798;48.858;9.092;2022-07-23T08:31:15;7.80;;;7.10;;
26020;SDS011;13798;48.858;9.092;2022-07-23T08:33:42;8.15;;;7.38;;
26020;SDS011;13798;48.858;9.092;2022-07-23T08:36:08;8.17;;;7.03;;
26020;SDS011;13798;48.858;9.092;2022-07-23T08:38:33;8.50;;;7.60;;
26020;SDS011;13798;48.858;9.092;2022-07-23T08:41:00;7.97;;;7.15;;
26020;SDS011;13798;48.858;9.092;2022-07-23T08:43:27;7.80;;;7.00;;
26020;SDS011;13798;48.858;9.092;2022-07-23T08:45:57;7.53;;;6.87;;
26020;SDS011;13798;48.858;9.092;2022-07-23T08:48:25;7.30;;;6.60;;
26020;SDS011;13798;48.858;9.092;2022-07-23T08:50:53;6.93;;;6.22;;
26020;SDS011;13798;48.858;9.092;2022-07-23T08:53:20;8.70;;;6.78;;
26020;SDS011;13798;48.858;9.092;2022-07-23T08:55:47;7.20;;;6.50;;
26020;SDS011;13798;48.858;9.092;2022-07-23T08:58:17;6.68;;;6.10;;
26020;SDS011;13798;48.858;9.092;2022-07-23T09:00:44;9.02;;;8.20;;
26020;SDS011;13798;48.858;9.092;2022-07-23T09:03:16;7.13;;;6.43;;
26020;SDS011;13798;48.858;9.092;2022-07-23T09:05:46;6.18;;;5.60;;
26020;SDS011;13798;48.858;9.092;2022-07-23T09:08:13;6.57;;;5.97;;
26020;SDS011;13798;48.858;9.092;2022-07-23T09:11:02;6.40;;;5.80;;
26020;SDS011;13798;48.858;9.092;2022-07-23T09:13:36;6.40;;;5.80;;
26020;SDS011;13798;48.858;9.092;2022-07-23T09:16:08;7.47;;;6.70;;
26020;SDS011;13798;48.858;9.092;2022-07-23T09:23:50;9.93;;;5.63;;
26020;SDS011;13798;48.858;9.092;2022-07-23T09:28:55;9.55;;;6.68;;
26020;SDS011;13798;48.858;9.092;2022-07-23T09:31:21;12.45;;;6.60;;
26020;SDS011;13798;48.858;9.092;2022-07-23T09:33:47;9.00;;;5.95;;
26020;SDS011;13798;48.858;9.092;2022-07-23T09:36:13;6.10;;;5.50;;
26020;SDS011;13798;48.858;9.092;2022-07-23T09:38:49;7.03;;;5.85;;
26020;SDS011;13798;48.858;9.092;2022-07-23T09:41:15;6.40;;;5.75;;
26020;SDS011;13798;48.858;9.092;2022-07-23T09:43:40;6.75;;;6.00;;
26020;SDS011;13798;48.858;9.092;2022-07-23T09:46:26;7.03;;;5.83;;
26020;SDS011;13798;48.858;9.092;2022-07-23T09:48:53;6.50;;;5.90;;
26020;SDS011;13798;48.858;9.092;2022-07-23T09:51:21;6.70;;;6.00;;
26020;SDS011;13798;48.858;9.092;2022-07-23T09:54:20;7.00;;;6.40;;
26020;SDS011;13798;48.858;9.092;2022-07-23T09:56:52;6.50;;;6.00;;
26020;SDS011;13798;48.858;9.092;2022-07-23T09:59:24;6.78;;;6.18;;
26020;SDS011;13798;48.858;9.092;2022-07-23T10:01:52;7.20;;;6.05;;
26020;SDS011;13798;48.858;9.092;2022-07-23T10:04:20;6.37;;;5.73;;
26020;SDS011;13798;48.858;9.092;2022-07-23T10:06:46;6.60;;;5.90;;
26020;SDS011;13798;48.858;9.092;2022-07-23T10:09:16;7.30;;;6.22;;
26020;SDS011;13798;48.858;9.092;2022-07-23T10:11:45;8.10;;;6.10;;
26020;SDS011;13798;48.858;9.092;2022-07-23T10:14:12;7.00;;;6.10;;
26020;SDS011;13798;48.858;9.092;2022-07-23T10:16:38;5.88;;;5.32;;
26020;SDS011;13798;48.858;9.092;2022-07-23T10:19:04;6.07;;;5.57;;
26020;SDS011;13798;48.858;9.092;2022-07-23T10:29:47;6.20;;;5.60;;
26020;SDS011;13798;48.858;9.092;2022-07-23T10:38:03;5.82;;;5.35;;
26020;SDS011;13798;48.858;9.092;2022-07-23T10:40:36;7.13;;;6.25;;
26020;SDS011;13798;48.858;9.092;2022-07-23T10:43:01;6.50;;;6.00;;
26020;SDS011;13798;48.858;9.092;2022-07-23T10:45:41;6.35;;;5.47;;
26020;SDS011;13798;48.858;9.092;2022-07-23T10:48:14;6.97;;;6.30;;
26020;SDS011;13798;48.858;9.092;2022-07-23T10:50:44;5.65;;;5.07;;
26020;SDS011;13798;48.858;9.092;2022-07-23T10:56:15;6.30;;;5.68;;
26020;SDS011;13798;48.858;9.092;2022-07-23T10:58:48;5.70;;;5.30;;
26020;SDS011;13798;48.858;9.092;2022-07-23T11:04:03;6.72;;;5.75;;
26020;SDS011;13798;48.858;9.092;2022-07-23T11:07:32;6.07;;;5.47;;
26020;SDS011;13798;48.858;9.092;2022-07-23T11:09:30;5.85;;;5.25;;
26020;SDS011;13798;48.858;9.092;2022-07-23T11:17:31;5.93;;;5.38;;
26020;SDS011;13798;48.858;9.092;2022-07-23T11:22:40;6.18;;;5.68;;
26020;SDS011;13798;48.858;9.092;2022-07-23T11:25:13;5.97;;;5.38;;
26020;SDS011;13798;48.858;9.092;2022-07-23T11:27:54;5.78;;;5.22;;
26020;SDS011;13798;48.858;9.092;2022-07-23T11:35:32;6.32;;;5.72;;
26020;SDS011;13798;48.858;9.092;2022-07-23T11:40:31;6.10;;;5.60;;
26020;SDS011;13798;48.858;9.092;2022-07-23T11:42:58;6.10;;;5.50;;
26020;SDS011;13798;48.858;9.092;2022-07-23T11:45:33;6.63;;;5.72;;
26020;SDS011;13798;48.858;9.092;2022-07-23T11:48:00;6.57;;;5.97;;
26020;SDS011;13798;48.858;9.092;2022-07-23T11:50:27;6.05;;;5.28;;
26020;SDS011;13798;48.858;9.092;2022-07-23T11:52:53;6.27;;;5.67;;
26020;SDS011;13798;48.858;9.092;2022-07-23T11:55:19;6.37;;;5.77;;
26020;SDS011;13798;48.858;9.092;2022-07-23T11:57:46;6.32;;;5.53;;
26020;SDS011;13798;48.858;9.092;2022-07-23T12:00:14;6.20;;;5.70;;
26020;SDS011;13798;48.858;9.092;2022-07-23T12:02:42;6.03;;;5.53;;
26020;SDS011;13798;48.858;9.092;2022-07-23T12:05:11;5.80;;;5.22;;
26020;SDS011;13798;48.858;9.092;2022-07-23T12:07:48;5.53;;;5.00;;
26020;SDS011;13798;48.858;9.092;2022-07-23T12:10:19;6.82;;;5.80;;
26020;SDS011;13798;48.858;9.092;2022-07-23T12:12:59;6.30;;;5.70;;
26020;SDS011;13798;48.858;9.092;2022-07-23T12:15:31;8.30;;;5.87;;
26020;SDS011;13798;48.858;9.092;2022-07-23T12:17:59;6.20;;;5.60;;
26020;SDS011;13798;48.858;9.092;2022-07-23T12:20:27;6.75;;;6.15;;
26020;SDS011;13798;48.858;9.092;2022-07-23T12:22:55;8.10;;;6.03;;
26020;SDS011;13798;48.858;9.092;2022-07-23T12:25:24;6.43;;;5.82;;
26020;SDS011;13798;48.858;9.092;2022-07-23T12:27:59;6.00;;;5.40;;
26020;SDS011;13798;48.858;9.092;2022-07-23T12:30:39;9.25;;;6.03;;
26020;SDS011;13798;48.858;9.092;2022-07-23T12:33:06;6.32;;;5.72;;
26020;SDS011;13798;48.858;9.092;2022-07-23T12:35:34;6.37;;;5.87;;
26020;SDS011;13798;48.858;9.092;2022-07-23T12:38:03;6.03;;;5.57;;
26020;SDS011;13798;48.858;9.092;2022-07-23T12:40:32;6.07;;;5.30;;
26020;SDS011;13798;48.858;9.092;2022-07-23T12:43:01;5.95;;;5.43;;
26020;SDS011;13798;48.858;9.092;2022-07-23T12:45:41;6.07;;;5.47;;
26020;SDS011;13798;48.858;9.092;2022-07-23T12:50:54;6.25;;;5.65;;
26020;SDS011;13798;48.858;9.092;2022-07-23T12:53:25;5.87;;;5.37;;
26020;SDS011;13798;48.858;9.092;2022-07-23T12:56:12;6.30;;;5.70;;
26020;SDS011;13798;48.858;9.092;2022-07-23T13:03:53;6.07;;;5.47;;
26020;SDS011;13798;48.858;9.092;2022-07-23T13:06:30;6.28;;;5.68;;
26020;SDS011;13798;48.858;9.092;2022-07-23T13:09:08;7.30;;;6.60;;
26020;SDS011;13798;48.858;9.092;2022-07-23T13:11:37;6.80;;;6.20;;
26020;SDS011;13798;48.858;9.092;2022-07-23T13:14:03;7.53;;;6.57;;
26020;SDS011;13798;48.858;9.092;2022-07-23T13:16:30;7.30;;;6.32;;
26020;SDS011;13798;48.858;9.092;2022-07-23T13:18:57;7.03;;;6.32;;
26020;SDS011;13798;48.858;9.092;2022-07-23T13:21:23;7.10;;;6.50;;
26020;SDS011;13798;48.858;9.092;2022-07-23T13:23:50;6.70;;;6.07;;
26020;SDS011;13798;48.858;9.092;2022-07-23T13:26:16;7.17;;;6.57;;
26020;SDS011;13798;48.858;9.092;2022-07-23T13:28:42;8.20;;;7.07;;
26020;SDS011;13798;48.858;9.092;2022-07-23T13:31:08;7.53;;;6.82;;
26020;SDS011;13798;48.858;9.092;2022-07-23T13:33:34;8.48;;;7.18;;
26020;SDS011;13798;48.858;9.092;2022-07-23T13:36:00;7.60;;;6.70;;
26020;SDS011;13798;48.858;9.092;2022-07-23T13:38:25;6.90;;;6.00;;
26020;SDS011;13798;48.858;9.092;2022-07-23T13:40:52;7.05;;;6.35;;
26020;SDS011;13798;48.858;9.092;2022-07-23T13:43:19;7.10;;;6.45;;
26020;SDS011;13798;48.858;9.092;2022-07-23T13:45:47;7.00;;;6.30;;
26020;SDS011;13798;48.858;9.092;2022-07-23T13:48:13;6.85;;;6.25;;
26020;SDS011;13798;48.858;9.092;2022-07-23T13:50:39;6.70;;;6.20;;
26020;SDS011;13798;48.858;9.092;2022-07-23T13:53:06;9.07;;;6.67;;
26020;SDS011;13798;48.858;9.092;2022-07-23T13:55:34;7.00;;;6.40;;
26020;SDS011;13798;48.858;9.092;2022-07-23T13:58:01;7.75;;;6.95;;
26020;SDS011;13798;48.858;9.092;2022-07-23T14:00:28;6.80;;;6.10;;
26020;SDS011;13798;48.858;9.092;2022-07-23T14:02:55;6.15;;;5.57;;
26020;SDS011;13798;48.858;9.092;2022-07-23T14:05:22;7.87;;;6.37;;
26020;SDS011;13798;48.858;9.092;2022-07-23T14:07:48;6.63;;;6.03;;
26020;SDS011;13798;48.858;9.092;2022-07-23T14:10:15;6.90;;;5.57;;
26020;SDS011;13798;48.858;9.092;2022-07-23T14:12:41;6.03;;;5.43;;
26020;SDS011;13798;48.858;9.092;2022-07-23T14:15:06;6.88;;;6.25;;
26020;SDS011;13798;48.858;9.092;2022-07-23T14:17:33;6.63;;;5.95;;
26020;SDS011;13798;48.858;9.092;2022-07-23T14:20:00;6.47;;;5.88;;
26020;SDS011;13798;48.858;9.092;2022-07-23T14:22:26;6.43;;;5.82;;
26020;SDS011;13798;48.858;9.092;2022-07-23T14:24:52;6.77;;;5.77;;
26020;SDS011;13798;48.858;9.092;2022-07-23T14:27:17;6.03;;;5.50;;
26020;SDS011;13798;48.858;9.092;2022-07-23T14:29:43;6.60;;;5.93;;
26020;SDS011;13798;48.858;9.092;2022-07-23T14:32:09;5.93;;;5.45;;
26020;SDS011;13798;48.858;9.092;2022-07-23T14:34:35;6.75;;;6.05;;
26020;SDS011;13798;48.858;9.092;2022-07-23T14:37:01;7.10;;;6.38;;
26020;SDS011;13798;48.858;9.092;2022-07-23T14:39:27;6.30;;;5.80;;
26020;SDS011;13798;48.858;9.092;2022-07-23T14:41:53;6.97;;;6.03;;
26020;SDS011;13798;48.858;9.092;2022-07-23T14:44:18;6.65;;;5.90;;
26020;SDS011;13798;48.858;9.092;2022-07-23T14:46:44;6.65;;;6.05;;
26020;SDS011;13798;48.858;9.092;2022-07-23T14:49:10;6.47;;;5.80;;
26020;SDS011;13798;48.858;9.092;2022-07-23T14:51:35;5.75;;;5.28;;
26020;SDS011;13798;48.858;9.092;2022-07-23T14:54:01;6.15;;;5.55;;
26020;SDS011;13798;48.858;9.092;2022-07-23T14:56:27;6.82;;;6.25;;
26020;SDS011;13798;48.858;9.092;2022-07-23T14:58:53;6.70;;;5.53;;
26020;SDS011;13798;48.858;9.092;2022-07-23T15:01:20;6.38;;;5.85;;
26020;SDS011;13798;48.858;9.092;2022-07-23T15:03:47;6.90;;;6.30;;
26020;SDS011;13798;48.858;9.092;2022-07-23T15:06:12;6.80;;;6.20;;
26020;SDS011;13798;48.858;9.092;2022-07-23T15:08:38;6.23;;;5.73;;
26020;SDS011;13798;48.858;9.092;2022-07-23T15:11:04;6.70;;;5.93;;
26020;SDS011;13798;48.858;9.092;2022-07-23T15:13:30;6.90;;;6.10;;
26020;SDS011;13798;48.858;9.092;2022-07-23T15:15:55;6.70;;;5.53;;
26020;SDS011;13798;48.858;9.092;2022-07-23T15:18:21;6.37;;;5.77;;
26020;SDS011;13798;48.858;9.092;2022-07-23T15:20:46;7.57;;;6.68;;
26020;SDS011;13798;48.858;9.092;2022-07-23T15:23:12;6.55;;;5.95;;
26020;SDS011;13798;48.858;9.092;2022-07-23T15:25:38;6.68;;;5.88;;
26020;SDS011;13798;48.858;9.092;2022-07-23T15:28:03;6.95;;;6.28;;
26020;SDS011;13798;48.858;9.092;2022-07-23T15:30:29;6.20;;;5.70;;
26020;SDS011;13798;48.858;9.092;2022-07-23T15:32:55;6.43;;;5.83;;
26020;SDS011;13798;48.858;9.092;2022-07-23T15:35:22;6.50;;;5.90;;
26020;SDS011;13798;48.858;9.092;2022-07-23T15:37:48;6.57;;;5.75;;
26020;SDS011;13798;48.858;9.092;2022-07-23T15:40:13;6.60;;;6.00;;
26020;SDS011;13798;48.858;9.092;2022-07-23T15:42:39;6.75;;;6.10;;
26020;SDS011;13798;48.858;9.092;2022-07-23T15:45:04;8.05;;;6.40;;
26020;SDS011;13798;48.858;9.092;2022-07-23T15:47:31;6.78;;;6.07;;
26020;SDS011;13798;48.858;9.092;2022-07-23T15:49:56;6.80;;;6.18;;
26020;SDS011;13798;48.858;9.092;2022-07-23T15:52:22;7.90;;;6.13;;
26020;SDS011;13798;48.858;9.092;2022-07-23T15:54:47;6.43;;;5.82;;
26020;SDS011;13798;48.858;9.092;2022-07-23T15:57:13;6.82;;;6.22;;
26020;SDS011;13798;48.858;9.092;2022-07-23T15:59:39;6.67;;;6.07;;
26020;SDS011;13798;48.858;9.092;2022-07-23T16:02:05;7.22;;;6.28;;
26020;SDS011;13798;48.858;9.092;2022-07-23T16:04:30;7.07;;;6.28;;
26020;SDS011;13798;48.858;9.092;2022-07-23T16:06:56;7.13;;;6.43;;
26020;SDS011;13798;48.858;9.092;2022-07-23T16:09:23;7.18;;;6.57;;
26020;SDS011;13798;48.858;9.092;2022-07-23T16:11:48;7.35;;;6.65;;
26020;SDS011;13798;48.858;9.092;2022-07-23T16:14:14;7.35;;;6.65;;
26020;SDS011;13798;48.858;9.092;2022-07-23T16:16:40;7.10;;;6.53;;
26020;SDS011;13798;48.858;9.092;2022-07-23T16:19:06;6.63;;;6.00;;
26020;SDS011;13798;48.858;9.092;2022-07-23T16:21:32;7.40;;;6.70;;
26020;SDS011;13798;48.858;9.092;2022-07-23T16:23:57;6.95;;;6.25;;
26020;SDS011;13798;48.858;9.092;2022-07-23T16:26:23;7.15;;;6.53;;
26020;SDS011;13798;48.858;9.092;2022-07-23T16:28:49;7.43;;;6.70;;
26020;SDS011;13798;48.858;9.092;2022-07-23T16:31:14;7.93;;;6.57;;
26020;SDS011;13798;48.858;9.092;2022-07-23T16:33:40;6.90;;;6.30;;
26020;SDS011;13798;48.858;9.092;2022-07-23T16:36:06;8.38;;;6.85;;
26020;SDS011;13798;48.858;9.092;2022-07-23T16:38:33;10.75;;;7.35;;
26020;SDS011;13798;48.858;9.092;2022-07-23T16:41:00;7.38;;;6.68;;
26020;SDS011;13798;48.858;9.092;2022-07-23T16:43:26;7.83;;;7.13;;
26020;SDS011;13798;48.858;9.092;2022-07-23T16:45:52;7.85;;;7.07;;
26020;SDS011;13798;48.858;9.092;2022-07-23T16:48:18;8.52;;;7.72;;
26020;SDS011;13798;48.858;9.092;2022-07-23T16:50:44;7.88;;;7.07;;
26020;SDS011;13798;48.858;9.092;2022-07-23T16:53:11;8.75;;;7.90;;
26020;SDS011;13798;48.858;9.092;2022-07-23T16:55:37;8.40;;;7.40;;
26020;SDS011;13798;48.858;9.092;2022-07-23T16:58:02;8.48;;;7.38;;
26020;SDS011;13798;48.858;9.092;2022-07-23T17:00:29;8.57;;;7.78;;
26020;SDS011;13798;48.858;9.092;2022-07-23T17:02:54;10.57;;;8.02;;
26020;SDS011;13798;48.858;9.092;2022-07-23T17:05:20;9.23;;;8.23;;
26020;SDS011;13798;48.858;9.092;2022-07-23T17:07:45;8.07;;;7.37;;
26020;SDS011;13798;48.858;9.092;2022-07-23T17:10:11;10.20;;;7.80;;
26020;SDS011;13798;48.858;9.092;2022-07-23T17:12:37;9.17;;;8.27;;
26020;SDS011;13798;48.858;9.092;2022-07-23T17:15:03;9.18;;;7.60;;
26020;SDS011;13798;48.858;9.092;2022-07-23T17:17:29;9.35;;;8.43;;
26020;SDS011;13798;48.858;9.092;2022-07-23T17:19:54;10.10;;;8.60;;
26020;SDS011;13798;48.858;9.092;2022-07-23T17:22:20;9.68;;;8.70;;
26020;SDS011;13798;48.858;9.092;2022-07-23T17:24:46;13.25;;;9.32;;
26020;SDS011;13798;48.858;9.092;2022-07-23T17:27:11;10.88;;;8.93;;
26020;SDS011;13798;48.858;9.092;2022-07-23T17:29:37;10.73;;;9.73;;
26020;SDS011;13798;48.858;9.092;2022-07-23T17:32:02;11.10;;;9.17;;
26020;SDS011;13798;48.858;9.092;2022-07-23T17:34:28;10.48;;;8.65;;
26020;SDS011;13798;48.858;9.092;2022-07-23T17:36:54;9.23;;;8.32;;
26020;SDS011;13798;48.858;9.092;2022-07-23T17:39:19;9.60;;;8.60;;
26020;SDS011;13798;48.858;9.092;2022-07-23T17:41:45;9.27;;;8.43;;
26020;SDS011;13798;48.858;9.092;2022-07-23T17:44:17;9.50;;;8.60;;
26020;SDS011;13798;48.858;9.092;2022-07-23T17:46:43;9.43;;;8.40;;
26020;SDS011;13798;48.858;9.092;2022-07-23T17:49:09;9.25;;;8.30;;
26020;SDS011;13798;48.858;9.092;2022-07-23T17:51:35;9.33;;;8.40;;
26020;SDS011;13798;48.858;9.092;2022-07-23T17:54:01;10.18;;;8.30;;
26020;SDS011;13798;48.858;9.092;2022-07-23T17:56:27;9.63;;;8.55;;
26020;SDS011;13798;48.858;9.092;2022-07-23T17:58:53;8.88;;;8.05;;
26020;SDS011;13798;48.858;9.092;2022-07-23T18:01:19;9.40;;;8.43;;
26020;SDS011;13798;48.858;9.092;2022-07-23T18:03:45;9.15;;;8.25;;
26020;SDS011;13798;48.858;9.092;2022-07-23T18:06:11;9.40;;;8.50;;
26020;SDS011;13798;48.858;9.092;2022-07-23T18:08:37;10.25;;;8.60;;
26020;SDS011;13798;48.858;9.092;2022-07-23T18:11:03;9.30;;;8.40;;
26020;SDS011;13798;48.858;9.092;2022-07-23T18:13:29;9.63;;;8.63;;
26020;SDS011;13798;48.858;9.092;2022-07-23T18:15:54;9.50;;;8.57;;
26020;SDS011;13798;48.858;9.092;2022-07-23T18:18:20;9.30;;;8.32;;
26020;SDS011;13798;48.858;9.092;2022-07-23T18:20:47;10.13;;;9.13;;
26020;SDS011;13798;48.858;9.092;2022-07-23T18:23:14;10.27;;;9.27;;
26020;SDS011;13798;48.858;9.092;2022-07-23T18:25:39;10.27;;;8.68;;
26020;SDS011;13798;48.858;9.092;2022-07-23T18:28:05;9.43;;;8.53;;
26020;SDS011;13798;48.858;9.092;2022-07-23T18:30:31;9.70;;;8.80;;
26020;SDS011;13798;48.858;9.092;2022-07-23T18:32:56;9.88;;;8.88;;
26020;SDS011;13798;48.858;9.092;2022-07-23T18:35:22;12.47;;;9.23;;
26020;SDS011;13798;48.858;9.092;2022-07-23T18:37:47;9.90;;;8.90;;
26020;SDS011;13798;48.858;9.092;2022-07-23T18:40:17;11.77;;;10.67;;
26020;SDS011;13798;48.858;9.092;2022-07-23T18:42:48;10.95;;;9.82;;
26020;SDS011;13798;48.858;9.092;2022-07-23T18:45:14;10.95;;;9.95;;
26020;SDS011;13798;48.858;9.092;2022-07-23T18:47:40;13.73;;;10.38;;
26020;SDS011;13798;48.858;9.092;2022-07-23T18:50:07;12.40;;;9.52;;
26020;SDS011;13798;48.858;9.092;2022-07-23T18:52:35;10.90;;;9.82;;
26020;SDS011;13798;48.858;9.092;2022-07-23T18:55:01;11.50;;;10.30;;
26020;SDS011;13798;48.858;9.092;2022-07-23T18:57:26;11.63;;;10.40;;
26020;SDS011;13798;48.858;9.092;2022-07-23T18:59:52;12.13;;;10.93;;
26020;SDS011;13798;48.858;9.092;2022-07-23T19:02:17;13.45;;;11.88;;
26020;SDS011;13798;48.858;9.092;2022-07-23T19:04:43;12.50;;;11.17;;
26020;SDS011;13798;48.858;9.092;2022-07-23T19:07:09;12.20;;;11.00;;
26020;SDS011;13798;48.858;9.092;2022-07-23T19:09:34;11.88;;;10.70;;
26020;SDS011;13798;48.858;9.092;2022-07-23T19:12:00;11.43;;;10.38;;
26020;SDS011;13798;48.858;9.092;2022-07-23T19:14:26;11.17;;;10.07;;
26020;SDS011;13798;48.858;9.092;2022-07-23T19:16:52;12.15;;;10.52;;
26020;SDS011;13798;48.858;9.092;2022-07-23T19:19:17;10.83;;;9.77;;
26020;SDS011;13798;48.858;9.092;2022-07-23T19:21:43;12.50;;;9.27;;
26020;SDS011;13798;48.858;9.092;2022-07-23T19:24:09;10.37;;;9.37;;
26020;SDS011;13798;48.858;9.092;2022-07-23T19:26:34;9.97;;;9.07;;
26020;SDS011;13798;48.858;9.092;2022-07-23T19:34:54;11.98;;;9.07;;
26020;SDS011;13798;48.858;9.092;2022-07-23T19:37:35;10.30;;;9.18;;
26020;SDS011;13798;48.858;9.092;2022-07-23T19:47:48;10.52;;;9.52;;
26020;SDS011;13798;48.858;9.092;2022-07-23T19:52:42;10.53;;;9.63;;
26020;SDS011;13798;48.858;9.092;2022-07-23T20:05:51;12.93;;;11.63;;
26020;SDS011;13798;48.858;9.092;2022-07-23T20:16:08;14.57;;;11.23;;
26020;SDS011;13798;48.858;9.092;2022-07-23T20:18:34;13.77;;;11.17;;
26020;SDS011;13798;48.858;9.092;2022-07-23T20:20:59;12.95;;;10.95;;
26020;SDS011;13798;48.858;9.092;2022-07-23T20:23:25;14.00;;;10.63;;
26020;SDS011;13798;48.858;9.092;2022-07-23T20:25:51;12.37;;;10.63;;
26020;SDS011;13798;48.858;9.092;2022-07-23T20:28:17;12.13;;;10.93;;
26020;SDS011;13798;48.858;9.092;2022-07-23T20:30:43;13.73;;;11.03;;
26020;SDS011;13798;48.858;9.092;2022-07-23T20:33:11;14.75;;;11.75;;
26020;SDS011;13798;48.858;9.092;2022-07-23T20:35:41;17.75;;;12.30;;
